Terminal Aerodrome Forecast
Issued by NWS Spokane, WA

Home | Current Version | Previous Version | Text Only | Print | Product List | Glossary On
Versions: 1 2 3 4 5 6 7 8 9 10 11 12 13 14 15 16 17 18
000
FTUS46 KOTX 191739
TAFEAT
TAF
KEAT 191739Z 1918/2018 29005KT P6SM VCSH SCT080 BKN120
     FM192100 29013G22KT P6SM VCSH SCT070 BKN110
     FM200200 29009KT P6SM SCT100
     FM200900 31006KT P6SM SCT100 BKN180=

USA.gov is the U.S. government's official web portal to all federal, state and local government web resources and services.